Otterville, Iowa
Current Conditions -  °F | °C
As of 10:55 AM on Monday 22 Dec 2014 (Local Time) from KIIB Reporting Station
Light Rain Light Rain  
Wind Chill: 26°   Ceiling: 2400
Heat Index: 36°   Visibility: 4mi
Dew Point: 34°   Wind: 16mph
Humidity: 93%   Direction: 120°ESE
Pressure: 29.66"   Gusts: NA
Location:  42.46°N, 91.7742°W
Report Text: KIIB 221655Z AUTO 12014KT 4SM -RA OVC024 02/01 A2966 RMK AO2
Loading
Personal Weather Stations






























Interactive Weather Map New forecast layout! Learn more

10-Day Weather Forecast

Advertisements
Track Severe Weather on mobile